首页
METAR-TAF:

METAR-TAF

机场 :

La Crosse, 威斯康辛州, 美国

纬度: 43-52-46N, 经度: 091-15-24W, 海拔: 199米

当前天气观测

该预报发布于56分钟前的04:53 UTC
风速14节,风向西
温度 12°C
湿度 62%
气压 1008 hPa
能見度: 16.1公里
天空无云

METAR: KLSE 250453Z AUTO 28014KT 10SM CLR 12/05 A2978 RMK AO2 SLP083 T01220050

时间: 00:49 (05:49 UTC)

预报

该预报发布于29分钟前的05:20 UTC
预报有效从25日的 06点(UTC)到 26日的 06点(UTC)
风速10节,风向西
能見度: 10公里
天空无云
从 25日的 1200点(UTC)
风速6节,风向
能見度: 10公里
天空无云
从 25日的 1800点(UTC)
风速14节,风向南转西南
能見度: 10公里
少量云层高于25000英尺

TAF: KLSE 250520Z 2506/2606 27010KT P6SM SKC FM251200 17006KT P6SM SKC FM251800 20014KT P6SM FEW250

超过4000个机场的气象观测和天气预报(METAR&TAF报告)。

可查询的气象台以黄色和红色小点在地图上表示。

将鼠标移到小点上方,可查看气象台名称。

然后点击查看天气观测和预报。

如需切换地图:点击带黑十字的绿色按钮放大地图;点击带横线的绿色按钮缩小地图;或者点击绿色箭头查看邻近地区的地图。


METAR-TAF: